Conway, Iowa
Current Conditions -  °F | °C
As of 12:15 PM on Friday 24 Oct 2014 (Local Time) from KICL Reporting Station
Overcast Overcast  
Wind Chill: 66°   Ceiling: 1100
Heat Index: 66°   Visibility: 9mi
Dew Point: 61°   Wind: 10mph
Humidity: 83%   Direction: 160°SSE
Pressure: 29.98"   Gusts: NA
Location:  40.6544°N, 94.7435°W
Report Text: KICL 241715Z AUTO 16009KT 9SM OVC011 19/16 A2998 RMK AO2
Loading
Personal Weather Stations






























Interactive Weather Map
Tropical Storm Tracking
New forecast layout! Learn more

10-Day Weather Forecast

Advertisements
Track Severe Weather on mobile